Terminal Aerodrome Forecast
Issued by NWS

Home | Current Version | Previous Version | Text Only | Print | Product List | Glossary Off
Versions: 1 2 3 4 5 6 7 8 9 10 11 12 13 14 15 16 17 18 19 20 21

888
FTUS43 KICT 162339
TAFCNU
TAF
KCNU 162339Z 1700/1724 24006KT P6SM BKN010 OVC020
     FM170600 28007KT P6SM OVC008
     FM171700 30005KT P6SM OVC010
     FM171900 30005KT P6SM OVC025
     FM172000 29005KT P6SM BKN040=

USA.gov is the U.S. government's official web portal to all federal, state and local government web resources and services.